Time;durP1;ratioP1;P1;durP2;ratioP2;P2;SDS_P1;SDS_P2;PMS_P1;PMS_P2;Temp;Humidity;BMP_temperature;BMP_pressure;BME280_temperature;BME280_humidity;BME280_pressure;Samples;Min_cycle;Max_cycle;Signal;HPM_P1;HPM_P2
2024/01/12 00:01:33;;;;;;;16.48;6.53;;;1.40;99.90;;;;;;5063300;28;20087;-71
2024/01/12 00:03:59;;;;;;;18.67;7.07;;;1.50;99.90;;;;;;5071344;28;20421;-71
2024/01/12 00:06:25;;;;;;;15.48;7.05;;;1.30;99.90;;;;;;5071877;28;20093;-71
2024/01/12 00:08:50;;;;;;;17.70;8.73;;;1.80;99.90;;;;;;5051845;28;20063;-72
2024/01/12 00:11:17;;;;;;;23.10;9.00;;;2.30;99.90;;;;;;5070684;28;20075;-71
2024/01/12 00:13:42;;;;;;;24.05;8.40;;;1.40;99.90;;;;;;5070200;28;20051;-71
2024/01/12 00:16:08;;;;;;;16.30;7.93;;;1.40;99.90;;;;;;5071285;28;20048;-76
2024/01/12 00:18:34;;;;;;;15.25;7.82;;;1.40;99.90;;;;;;5070538;28;20477;-72
2024/01/12 00:21:00;;;;;;;14.90;7.38;;;1.40;99.90;;;;;;5069909;28;20137;-71
2024/01/12 00:23:26;;;;;;;12.80;6.97;;;1.50;99.90;;;;;;5070562;28;20099;-71
2024/01/12 00:25:58;;;;;;;14.90;7.20;;;1.50;99.90;;;;;;5070194;28;20040;-71
2024/01/12 00:28:26;;;;;;;18.83;7.20;;;1.70;99.90;;;;;;5054430;28;20154;-71
2024/01/12 00:30:52;;;;;;;20.15;7.15;;;1.50;99.90;;;;;;5069600;28;20040;-71
2024/01/12 00:33:18;;;;;;;19.85;7.63;;;1.50;99.90;;;;;;5064298;28;20045;-71
2024/01/12 00:35:43;;;;;;;15.88;6.85;;;1.50;99.90;;;;;;5051786;28;20044;-71
2024/01/12 00:38:09;;;;;;;17.20;6.65;;;1.50;99.90;;;;;;5069304;28;20036;-71
2024/01/12 00:40:35;;;;;;;16.60;6.95;;;1.50;99.90;;;;;;5059152;28;20369;-71
2024/01/12 00:43:01;;;;;;;15.57;7.10;;;1.50;99.90;;;;;;5069573;28;20529;-80
2024/01/12 00:45:26;;;;;;;15.13;6.60;;;1.50;99.90;;;;;;5069335;28;20389;-72
2024/01/12 00:47:52;;;;;;;12.82;7.05;;;2.20;99.90;;;;;;5075480;28;20090;-71
2024/01/12 00:50:18;;;;;;;17.55;7.63;;;1.70;99.90;;;;;;5072009;28;20070;-71
2024/01/12 00:52:44;;;;;;;16.13;7.05;;;1.50;99.90;;;;;;5063081;28;20131;-71
2024/01/12 00:55:11;;;;;;;17.20;6.88;;;1.50;99.90;;;;;;5074761;28;20046;-71
2024/01/12 00:57:37;;;;;;;21.80;7.32;;;1.80;99.90;;;;;;5075381;28;20045;-71
2024/01/12 01:00:04;;;;;;;21.65;7.10;;;1.50;99.90;;;;;;5057504;28;20064;-80
2024/01/12 01:02:30;;;;;;;16.73;6.28;;;1.50;99.90;;;;;;5073508;28;20089;-71
2024/01/12 01:04:56;;;;;;;20.05;6.95;;;1.60;99.90;;;;;;5074026;28;20056;-71
2024/01/12 01:07:22;;;;;;;15.65;6.18;;;1.60;99.90;;;;;;5073496;28;20379;-72
2024/01/12 01:09:48;;;;;;;13.88;6.80;;;1.60;99.90;;;;;;5074569;28;20051;-71
2024/01/12 01:12:14;;;;;;;16.40;6.20;;;2.10;99.90;;;;;;5065250;28;20040;-78
2024/01/12 01:14:39;;;;;;;13.55;6.07;;;1.60;99.90;;;;;;5063936;28;20473;-71
2024/01/12 01:17:05;;;;;;;14.85;6.38;;;1.60;99.90;;;;;;5073901;28;20049;-80
2024/01/12 01:19:31;;;;;;;12.35;5.80;;;1.60;99.90;;;;;;5074598;28;20041;-71
2024/01/12 01:21:56;;;;;;;11.07;5.63;;;1.60;99.90;;;;;;5072227;28;20045;-71
2024/01/12 01:24:27;;;;;;;13.63;6.25;;;1.60;99.90;;;;;;5073071;28;20068;-71
2024/01/12 01:26:52;;;;;;;14.80;5.90;;;1.70;99.90;;;;;;5073756;28;20115;-71
2024/01/12 01:29:18;;;;;;;17.70;6.43;;;1.70;99.90;;;;;;5059190;28;20128;-71
2024/01/12 01:31:44;;;;;;;11.55;5.88;;;1.60;99.90;;;;;;5074882;28;20037;-71
2024/01/12 01:34:10;;;;;;;17.83;5.95;;;1.80;99.90;;;;;;5063043;28;20048;-80
2024/01/12 01:36:35;;;;;;;15.48;6.03;;;2.30;99.90;;;;;;5073718;28;20473;-71
2024/01/12 01:39:01;;;;;;;18.50;7.05;;;1.60;99.90;;;;;;5073220;28;20404;-71
2024/01/12 01:41:27;;;;;;;16.50;7.13;;;1.60;99.90;;;;;;5073950;28;20063;-71
2024/01/12 01:43:52;;;;;;;16.38;6.70;;;1.60;99.90;;;;;;5071786;28;20060;-71
2024/01/12 01:46:19;;;;;;;11.25;5.82;;;1.80;99.90;;;;;;5072244;28;20036;-71
2024/01/12 01:48:45;;;;;;;11.63;6.22;;;1.70;99.90;;;;;;5074347;28;20029;-71
2024/01/12 01:51:11;;;;;;;17.38;7.47;;;1.60;99.90;;;;;;5074466;28;20045;-81
2024/01/12 01:53:38;;;;;;;14.48;6.63;;;2.10;99.90;;;;;;5072653;28;20043;-71
2024/01/12 01:56:04;;;;;;;16.35;6.88;;;1.60;99.90;;;;;;5074224;28;20044;-71
2024/01/12 01:58:30;;;;;;;10.38;6.13;;;1.60;99.90;;;;;;5072178;28;20039;-71
2024/01/12 02:00:57;;;;;;;15.63;6.63;;;1.60;99.90;;;;;;5074443;28;20052;-71
2024/01/12 02:03:23;;;;;;;20.52;7.18;;;1.60;99.90;;;;;;5072297;28;20105;-71
2024/01/12 02:05:51;;;;;;;14.45;6.80;;;1.60;99.90;;;;;;5072423;28;20111;-71
2024/01/12 02:08:17;;;;;;;15.20;7.28;;;2.40;99.90;;;;;;5073011;28;20482;-71
2024/01/12 02:10:43;;;;;;;13.75;7.05;;;1.70;99.90;;;;;;5072757;28;20039;-71
2024/01/12 02:13:08;;;;;;;11.65;6.75;;;1.60;99.90;;;;;;5073386;28;20032;-70
2024/01/12 02:15:34;;;;;;;14.52;7.55;;;1.60;99.90;;;;;;5069975;28;20047;-71
2024/01/12 02:18:00;;;;;;;13.45;6.60;;;1.70;99.90;;;;;;5055417;28;20036;-71
2024/01/12 02:20:26;;;;;;;16.95;7.22;;;1.60;99.90;;;;;;5071149;28;20044;-71
2024/01/12 02:22:51;;;;;;;13.57;7.60;;;1.60;99.90;;;;;;5073347;28;20044;-71
2024/01/12 02:25:17;;;;;;;16.20;7.40;;;1.60;99.90;;;;;;5072254;28;20044;-80
2024/01/12 02:27:43;;;;;;;15.43;7.88;;;1.60;99.90;;;;;;5071761;28;20373;-71
2024/01/12 02:30:10;;;;;;;13.30;7.32;;;1.60;99.90;;;;;;5072463;28;20494;-71
2024/01/12 02:32:36;;;;;;;15.88;7.38;;;1.60;99.90;;;;;;5071346;28;20436;-71
2024/01/12 02:35:01;;;;;;;16.35;7.10;;;1.60;99.90;;;;;;5060464;28;20045;-71
2024/01/12 02:37:27;;;;;;;15.63;8.43;;;1.60;99.90;;;;;;5071395;28;20079;-71
2024/01/12 02:39:53;;;;;;;14.07;7.22;;;1.80;99.90;;;;;;5042472;28;20466;-71
2024/01/12 02:42:18;;;;;;;16.58;7.65;;;1.50;99.90;;;;;;5073555;28;20386;-77
2024/01/12 02:44:44;;;;;;;13.38;7.25;;;0.70;99.90;;;;;;5073450;28;20044;-71
2024/01/12 02:47:12;;;;;;;17.33;8.48;;;1.40;99.90;;;;;;5071590;28;20083;-71
2024/01/12 02:49:37;;;;;;;19.05;8.73;;;1.40;99.90;;;;;;5071728;28;20401;-72
2024/01/12 02:52:03;;;;;;;19.02;9.48;;;1.20;99.90;;;;;;5073302;28;20081;-71
2024/01/12 02:54:29;;;;;;;21.55;9.95;;;1.20;99.90;;;;;;5072861;28;20378;-71
2024/01/12 02:56:55;;;;;;;17.38;9.05;;;1.30;99.90;;;;;;5072379;28;20075;-72
2024/01/12 02:59:21;;;;;;;15.30;9.07;;;1.10;99.90;;;;;;5070404;28;20381;-71
2024/01/12 03:01:46;;;;;;;18.55;9.32;;;1.20;99.90;;;;;;5071806;28;20048;-71
2024/01/12 03:04:12;;;;;;;19.30;9.02;;;1.20;99.90;;;;;;5072106;28;20051;-72
2024/01/12 03:06:38;;;;;;;16.48;8.85;;;1.20;99.90;;;;;;5072764;28;20067;-72
2024/01/12 03:09:03;;;;;;;15.23;8.77;;;1.20;99.90;;;;;;5053121;28;20036;-72
2024/01/12 03:11:29;;;;;;;16.83;8.25;;;1.40;99.90;;;;;;5070987;28;20462;-72
2024/01/12 03:13:55;;;;;;;15.63;7.95;;;1.90;99.90;;;;;;5072617;28;20048;-72
2024/01/12 03:16:21;;;;;;;16.63;8.55;;;1.40;99.90;;;;;;5071987;28;20041;-72
2024/01/12 03:18:50;;;;;;;23.80;7.90;;;1.30;99.90;;;;;;5071003;28;20119;-71
2024/01/12 03:21:19;;;;;;;19.55;7.55;;;1.30;99.90;;;;;;5070578;28;20063;-71
2024/01/12 03:23:45;;;;;;;16.30;7.15;;;1.30;99.90;;;;;;5071036;28;20045;-71
2024/01/12 03:26:10;;;;;;;18.33;7.07;;;1.40;99.90;;;;;;5072923;28;20044;-71
2024/01/12 03:28:36;;;;;;;20.10;6.75;;;1.90;99.90;;;;;;5071686;28;20480;-72
2024/01/12 03:31:03;;;;;;;15.32;6.45;;;1.60;99.90;;;;;;5071394;28;20048;-71
2024/01/12 03:33:29;;;;;;;13.70;6.00;;;1.50;99.90;;;;;;5064136;28;20082;-80
2024/01/12 03:35:54;;;;;;;20.67;6.38;;;1.60;99.90;;;;;;5066484;28;20044;-71
2024/01/12 03:38:20;;;;;;;24.02;7.45;;;1.60;99.90;;;;;;5072091;28;20036;-71
2024/01/12 03:40:45;;;;;;;18.25;6.35;;;1.50;99.90;;;;;;5062920;28;20047;-71
2024/01/12 03:43:11;;;;;;;16.25;6.50;;;2.00;99.90;;;;;;5067855;28;20162;-71
2024/01/12 03:45:37;;;;;;;14.90;6.40;;;1.70;99.90;;;;;;5087687;28;20033;-71
2024/01/12 03:48:03;;;;;;;20.83;6.70;;;1.60;99.90;;;;;;5046898;28;20033;-71
2024/01/12 03:50:28;;;;;;;18.95;6.88;;;1.70;99.90;;;;;;5062143;28;20045;-71
2024/01/12 03:52:54;;;;;;;21.77;7.03;;;1.70;99.90;;;;;;5070231;28;20050;-71
2024/01/12 03:55:20;;;;;;;15.65;6.47;;;1.70;99.90;;;;;;5072108;28;20037;-71
2024/01/12 03:57:45;;;;;;;22.60;6.03;;;1.70;99.90;;;;;;5069303;28;20473;-71
2024/01/12 04:00:11;;;;;;;25.63;7.20;;;1.70;99.90;;;;;;5063953;28;20478;-71
2024/01/12 04:02:37;;;;;;;24.42;6.57;;;1.80;99.90;;;;;;5066201;28;20059;-71
2024/01/12 04:05:03;;;;;;;18.23;6.13;;;2.00;99.90;;;;;;5070334;28;20040;-71
2024/01/12 04:07:29;;;;;;;26.90;7.88;;;1.80;99.90;;;;;;5070128;28;20477;-71
2024/01/12 04:09:55;;;;;;;16.50;6.30;;;1.80;99.90;;;;;;5070047;28;20127;-71
2024/01/12 04:12:21;;;;;;;14.65;6.78;;;1.70;99.90;;;;;;5052246;28;20040;-71
2024/01/12 04:14:47;;;;;;;26.17;7.57;;;2.30;99.90;;;;;;5070774;28;20055;-71
2024/01/12 04:17:12;;;;;;;23.48;7.20;;;1.80;99.90;;;;;;5058287;28;20090;-71
2024/01/12 04:19:38;;;;;;;23.73;6.50;;;1.80;99.90;;;;;;5070805;28;20370;-72
2024/01/12 04:22:04;;;;;;;22.92;7.03;;;1.80;99.90;;;;;;5051202;28;20056;-71
2024/01/12 04:24:31;;;;;;;17.00;6.00;;;1.90;99.90;;;;;;5071841;28;20042;-71
2024/01/12 04:26:57;;;;;;;16.55;6.32;;;1.90;99.90;;;;;;5053764;28;20071;-72
2024/01/12 04:29:22;;;;;;;18.65;6.18;;;1.90;99.90;;;;;;5071773;28;20385;-72
2024/01/12 04:31:48;;;;;;;18.02;6.68;;;1.90;99.90;;;;;;5052924;28;20048;-76
2024/01/12 04:34:15;;;;;;;20.35;6.45;;;1.90;99.90;;;;;;5070216;28;20051;-71
2024/01/12 04:36:41;;;;;;;16.45;6.25;;;1.80;99.90;;;;;;5069849;28;20102;-72
2024/01/12 04:39:07;;;;;;;24.88;7.07;;;1.90;99.90;;;;;;5065707;28;20040;-71
2024/01/12 04:41:33;;;;;;;14.48;5.90;;;1.90;99.90;;;;;;5063221;28;20398;-71
2024/01/12 04:43:58;;;;;;;15.57;6.80;;;1.90;99.90;;;;;;5069255;28;20116;-71
2024/01/12 04:46:24;;;;;;;23.38;7.85;;;1.90;99.90;;;;;;5071965;28;20102;-72
2024/01/12 04:48:50;;;;;;;30.23;7.07;;;1.90;99.90;;;;;;5070992;28;20036;-71
2024/01/12 04:51:15;;;;;;;27.20;7.15;;;1.90;99.90;;;;;;5069568;28;20044;-72
2024/01/12 04:53:41;;;;;;;21.98;7.40;;;1.80;99.90;;;;;;5058288;28;20487;-82
2024/01/12 04:56:07;;;;;;;21.98;7.18;;;1.80;99.90;;;;;;5052329;28;20178;-71
2024/01/12 04:58:32;;;;;;;22.40;6.63;;;1.90;99.90;;;;;;5055616;28;20041;-71
2024/01/12 05:00:58;;;;;;;23.35;7.47;;;1.80;99.90;;;;;;5052158;28;20044;-71
2024/01/12 05:03:24;;;;;;;28.08;8.15;;;2.10;99.90;;;;;;5069922;28;20036;-71
2024/01/12 05:05:50;;;;;;;27.63;8.38;;;1.80;99.90;;;;;;5065631;28;20139;-71
2024/01/12 05:08:15;;;;;;;28.42;8.63;;;2.10;99.90;;;;;;5054466;28;20041;-71
2024/01/12 05:10:41;;;;;;;29.75;6.97;;;1.80;99.90;;;;;;5039861;28;20036;-71
2024/01/12 05:13:07;;;;;;;28.67;8.45;;;1.80;99.90;;;;;;5068329;28;20090;-71
2024/01/12 05:15:32;;;;;;;33.58;8.57;;;1.80;99.90;;;;;;5055898;28;20075;-71
2024/01/12 05:17:58;;;;;;;24.83;7.43;;;2.20;99.90;;;;;;5061009;28;20052;-71
2024/01/12 05:20:25;;;;;;;29.10;8.02;;;1.70;99.90;;;;;;5051698;28;20086;-70
2024/01/12 05:22:50;;;;;;;24.05;7.20;;;1.70;99.90;;;;;;5058733;28;20504;-71
2024/01/12 05:25:16;;;;;;;24.02;7.25;;;1.70;99.90;;;;;;5060652;28;20037;-71
2024/01/12 05:27:42;;;;;;;24.45;7.28;;;1.90;99.90;;;;;;5073212;28;20489;-71
2024/01/12 05:30:08;;;;;;;31.38;7.55;;;1.70;99.90;;;;;;5050567;28;20072;-71
2024/01/12 05:32:34;;;;;;;29.90;7.70;;;1.70;99.90;;;;;;5052112;28;20489;-75
2024/01/12 05:34:59;;;;;;;24.15;7.47;;;1.70;99.90;;;;;;5061949;28;20048;-71
2024/01/12 05:37:25;;;;;;;32.08;7.75;;;1.70;99.90;;;;;;5091642;28;20043;-71
2024/01/12 05:39:51;;;;;;;27.42;7.57;;;1.80;99.90;;;;;;5064379;28;20117;-71
2024/01/12 05:42:16;;;;;;;35.55;8.10;;;1.80;99.90;;;;;;5070242;28;20044;-71
2024/01/12 05:44:42;;;;;;;29.13;8.05;;;1.90;99.90;;;;;;5066995;28;20036;-71
2024/01/12 05:47:08;;;;;;;30.50;7.88;;;2.00;99.90;;;;;;5052070;28;20054;-71
2024/01/12 05:49:37;;;;;;;21.00;6.60;;;2.30;99.90;;;;;;5087334;28;20037;-71
2024/01/12 05:52:03;;;;;;;23.35;7.10;;;2.00;99.90;;;;;;5056959;28;20041;-71
2024/01/12 05:54:28;;;;;;;26.17;7.07;;;2.00;99.90;;;;;;5061683;28;20041;-71
2024/01/12 05:56:54;;;;;;;44.40;6.85;;;2.10;99.90;;;;;;5072844;28;20060;-71
2024/01/12 05:59:20;;;;;;;27.95;7.38;;;2.10;99.90;;;;;;5050654;28;20033;-71
2024/01/12 06:01:46;;;;;;;27.42;6.70;;;2.00;99.90;;;;;;5067325;28;20044;-71
2024/01/12 06:04:12;;;;;;;21.38;6.68;;;2.30;99.90;;;;;;5068479;28;20132;-71
2024/01/12 06:06:40;;;;;;;24.45;6.68;;;2.10;99.90;;;;;;5066945;28;20044;-71
2024/01/12 06:09:06;;;;;;;24.27;7.45;;;2.10;99.90;;;;;;5047034;28;20100;-71
2024/01/12 06:11:32;;;;;;;24.33;6.13;;;2.10;99.90;;;;;;5057162;28;20458;-71
2024/01/12 06:13:58;;;;;;;21.50;7.18;;;2.70;99.90;;;;;;5086074;28;20052;-71
2024/01/12 06:16:23;;;;;;;25.35;7.28;;;2.10;99.90;;;;;;5066920;28;20108;-71
2024/01/12 06:18:49;;;;;;;31.05;7.20;;;2.10;99.90;;;;;;5065912;28;20044;-71
2024/01/12 06:21:15;;;;;;;33.25;7.20;;;2.10;99.90;;;;;;5073309;28;20106;-71
2024/01/12 06:23:40;;;;;;;24.30;6.80;;;2.20;99.90;;;;;;5059691;28;20115;-71
2024/01/12 06:26:06;;;;;;;27.98;6.80;;;2.20;99.90;;;;;;5027071;28;20037;-71
2024/01/12 06:28:31;;;;;;;22.90;6.60;;;2.20;99.90;;;;;;5063922;28;20037;-71
2024/01/12 06:30:57;;;;;;;21.52;7.28;;;3.00;99.90;;;;;;5061941;28;20033;-80
2024/01/12 06:33:23;;;;;;;27.45;7.40;;;2.20;99.90;;;;;;5042524;28;20040;-72
2024/01/12 06:35:49;;;;;;;25.35;6.50;;;2.20;99.90;;;;;;5053962;28;20390;-71
2024/01/12 06:38:15;;;;;;;22.73;7.28;;;2.20;99.90;;;;;;5055092;28;20037;-71
2024/01/12 06:40:40;;;;;;;24.77;7.57;;;2.70;99.90;;;;;;5053488;28;20462;-71
2024/01/12 06:43:06;;;;;;;26.85;7.20;;;2.20;99.90;;;;;;5088490;28;20043;-71
2024/01/12 06:45:32;;;;;;;29.13;7.22;;;2.20;99.90;;;;;;5071475;28;20033;-71
2024/01/12 06:47:58;;;;;;;24.63;7.50;;;2.30;99.90;;;;;;5069181;28;20158;-81
2024/01/12 06:50:23;;;;;;;30.40;6.63;;;2.20;99.90;;;;;;5070450;28;20048;-71
2024/01/12 06:52:49;;;;;;;30.88;6.20;;;2.20;99.90;;;;;;5066581;28;20053;-71
2024/01/12 06:55:15;;;;;;;28.05;6.32;;;2.20;99.90;;;;;;5062917;28;20545;-73
2024/01/12 06:57:43;;;;;;;26.23;6.70;;;2.30;99.90;;;;;;5053166;28;20044;-71
2024/01/12 07:00:09;;;;;;;21.65;5.65;;;2.20;99.90;;;;;;5053561;28;20033;-71
2024/01/12 07:02:35;;;;;;;22.60;5.68;;;2.20;99.90;;;;;;5051926;28;20045;-71
2024/01/12 07:05:01;;;;;;;20.67;5.50;;;2.30;99.90;;;;;;5045470;28;20367;-79
2024/01/12 07:07:26;;;;;;;20.35;5.80;;;2.30;99.90;;;;;;5061862;28;20067;-71
2024/01/12 07:09:52;;;;;;;25.08;5.28;;;2.30;99.90;;;;;;5064563;28;20071;-71
2024/01/12 07:12:18;;;;;;;26.15;5.20;;;2.30;99.90;;;;;;5069403;28;20044;-71
2024/01/12 07:14:43;;;;;;;24.02;5.82;;;2.30;99.90;;;;;;5071062;28;20123;-72
2024/01/12 07:17:09;;;;;;;32.20;5.82;;;1.90;99.90;;;;;;5066687;28;20477;-72
2024/01/12 07:19:36;;;;;;;23.63;5.88;;;2.30;99.90;;;;;;5060894;28;20063;-71
2024/01/12 07:22:02;;;;;;;20.38;5.88;;;2.30;99.90;;;;;;5055644;28;20048;-71
2024/01/12 07:24:28;;;;;;;25.33;6.07;;;2.40;99.90;;;;;;5062634;28;20067;-74
2024/01/12 07:26:54;;;;;;;25.65;5.65;;;2.30;99.90;;;;;;5057295;28;20052;-71
2024/01/12 07:29:22;;;;;;;27.00;6.00;;;2.50;99.90;;;;;;5050967;28;20083;-70
2024/01/12 07:31:49;;;;;;;22.42;6.07;;;2.40;99.90;;;;;;5059501;28;20047;-71
2024/01/12 07:34:15;;;;;;;23.48;5.82;;;2.40;99.90;;;;;;5063284;28;20049;-70
2024/01/12 07:36:41;;;;;;;22.50;6.03;;;2.70;99.90;;;;;;5074153;28;20044;-71
2024/01/12 07:39:10;;;;;;;25.10;5.10;;;2.40;99.90;;;;;;5063983;28;20075;-78
2024/01/12 07:41:36;;;;;;;29.08;5.53;;;2.50;99.90;;;;;;5071944;28;20053;-71
2024/01/12 07:44:01;;;;;;;19.35;5.25;;;2.40;99.90;;;;;;5059396;28;20474;-71
2024/01/12 07:46:28;;;;;;;22.58;5.00;;;2.50;99.90;;;;;;5053741;28;20036;-71
2024/01/12 07:48:55;;;;;;;21.55;4.90;;;2.40;99.90;;;;;;5070683;28;20492;-71
2024/01/12 07:51:21;;;;;;;20.30;4.70;;;2.40;99.90;;;;;;5057624;28;20047;-72
2024/01/12 07:53:47;;;;;;;19.83;4.50;;;2.50;99.90;;;;;;5067855;28;20040;-70
2024/01/12 07:56:12;;;;;;;15.65;4.30;;;2.50;99.90;;;;;;5063984;28;20116;-72
2024/01/12 07:58:38;;;;;;;20.58;4.57;;;2.60;99.90;;;;;;5058230;28;20041;-74
2024/01/12 08:01:07;;;;;;;21.73;4.82;;;2.50;99.90;;;;;;5050566;28;20045;-71
2024/01/12 08:03:33;;;;;;;21.10;4.28;;;2.50;99.90;;;;;;5059648;28;20083;-70
2024/01/12 08:06:00;;;;;;;19.75;4.85;;;2.60;99.90;;;;;;5087889;28;20401;-71
2024/01/12 08:08:26;;;;;;;18.17;4.03;;;2.60;99.90;;;;;;5054848;28;20041;-71
2024/01/12 08:10:52;;;;;;;13.15;3.60;;;2.60;99.90;;;;;;5059510;28;20052;-71
2024/01/12 08:13:17;;;;;;;18.88;3.78;;;2.70;99.90;;;;;;5049583;28;20085;-72
2024/01/12 08:15:43;;;;;;;19.25;4.05;;;2.60;99.90;;;;;;5072207;28;20063;-71
2024/01/12 08:18:09;;;;;;;15.43;3.50;;;2.70;99.90;;;;;;5068653;28;20499;-72
2024/01/12 08:20:34;;;;;;;21.02;3.85;;;2.80;99.90;;;;;;5061578;28;20491;-72
2024/01/12 08:23:00;;;;;;;19.52;4.32;;;2.70;99.90;;;;;;5053409;28;20095;-73
2024/01/12 08:25:26;;;;;;;25.13;4.15;;;2.70;99.90;;;;;;5064182;28;20044;-72
2024/01/12 08:27:51;;;;;;;21.63;3.85;;;2.70;99.90;;;;;;5071631;28;20086;-72
2024/01/12 08:30:17;;;;;;;21.75;4.53;;;2.80;99.90;;;;;;5056056;28;20041;-76
2024/01/12 08:32:42;;;;;;;28.90;4.50;;;2.80;99.90;;;;;;5071151;28;20040;-72
2024/01/12 08:35:08;;;;;;;16.60;3.97;;;2.80;99.90;;;;;;5069359;28;20072;-73
2024/01/12 08:37:34;;;;;;;18.60;3.95;;;2.80;99.90;;;;;;5067629;28;20102;-72
2024/01/12 08:39:59;;;;;;;16.63;3.95;;;2.80;99.90;;;;;;5061044;28;20115;-72
2024/01/12 08:42:25;;;;;;;14.75;3.08;;;2.80;99.90;;;;;;5072370;28;20045;-72
2024/01/12 08:44:51;;;;;;;17.10;3.53;;;2.80;99.90;;;;;;5052047;28;20040;-73
2024/01/12 08:47:20;;;;;;;14.43;2.65;;;2.90;99.90;;;;;;5058457;28;20477;-79
2024/01/12 08:49:46;;;;;;;22.30;4.38;;;2.90;99.90;;;;;;5068976;28;20485;-73
2024/01/12 08:52:12;;;;;;;15.15;4.03;;;2.90;99.90;;;;;;5070768;28;20040;-72
2024/01/12 08:54:37;;;;;;;16.25;3.50;;;2.80;99.90;;;;;;5054237;28;20045;-73
2024/01/12 08:57:03;;;;;;;17.83;3.25;;;2.90;99.90;;;;;;5069007;28;20139;-73
2024/01/12 08:59:29;;;;;;;19.52;4.03;;;2.90;99.90;;;;;;5071701;28;20036;-73
2024/01/12 09:01:56;;;;;;;20.80;3.88;;;2.90;99.90;;;;;;5054326;28;20377;-73
2024/01/12 09:04:23;;;;;;;22.02;3.80;;;2.90;99.90;;;;;;5070559;28;20120;-81
2024/01/12 09:06:48;;;;;;;20.17;3.78;;;3.00;99.90;;;;;;5072210;28;20420;-73
2024/01/12 09:09:14;;;;;;;19.13;3.85;;;3.00;99.90;;;;;;5058583;28;20055;-72
2024/01/12 09:11:40;;;;;;;17.23;3.75;;;3.00;99.90;;;;;;5069939;28;20079;-82
2024/01/12 09:14:06;;;;;;;22.65;3.95;;;3.80;99.90;;;;;;5076862;28;20055;-72
2024/01/12 09:16:31;;;;;;;16.45;3.63;;;3.50;99.90;;;;;;5098068;28;20052;-71
2024/01/12 09:18:57;;;;;;;20.48;3.58;;;3.30;99.90;;;;;;5064734;28;20047;-72
2024/01/12 09:21:24;;;;;;;19.08;3.25;;;3.20;99.90;;;;;;5047379;28;20068;-79
2024/01/12 09:23:49;;;;;;;19.02;3.50;;;3.20;99.90;;;;;;5051777;28;20052;-71
2024/01/12 09:26:16;;;;;;;20.70;3.78;;;3.10;99.90;;;;;;5073528;28;20055;-76
2024/01/12 09:28:41;;;;;;;23.63;5.00;;;3.20;99.90;;;;;;5058017;28;20044;-73
2024/01/12 09:31:08;;;;;;;17.00;3.90;;;3.30;99.90;;;;;;5063549;28;20090;-73
2024/01/12 09:33:34;;;;;;;18.13;3.85;;;3.20;99.90;;;;;;5057378;28;20039;-74
2024/01/12 09:35:59;;;;;;;13.32;3.55;;;3.40;99.90;;;;;;5072052;28;20045;-73
2024/01/12 09:38:25;;;;;;;20.65;4.50;;;3.30;99.90;;;;;;5056328;28;20044;-74
2024/01/12 09:40:51;;;;;;;21.08;3.25;;;3.30;99.90;;;;;;5067601;28;20492;-73
2024/01/12 09:43:21;;;;;;;16.33;3.72;;;3.40;99.90;;;;;;5055987;28;20040;-73
2024/01/12 09:45:50;;;;;;;24.40;3.40;;;3.40;99.90;;;;;;5061815;28;20047;-73
2024/01/12 09:48:17;;;;;;;16.00;3.17;;;3.40;99.90;;;;;;5040094;28;20067;-72
2024/01/12 09:50:47;;;;;;;19.17;2.97;;;3.50;99.90;;;;;;5060528;28;20044;-72
2024/01/12 09:53:13;;;;;;;14.45;4.15;;;3.40;99.90;;;;;;5073207;28;20102;-71
2024/01/12 09:55:38;;;;;;;9.55;3.10;;;3.50;99.90;;;;;;5072353;28;20133;-72
2024/01/12 09:58:07;;;;;;;23.17;3.10;;;3.40;99.90;;;;;;5055897;28;20049;-72
2024/01/12 10:00:37;;;;;;;12.60;3.38;;;3.40;99.90;;;;;;5072184;28;20036;-72
2024/01/12 10:03:05;;;;;;;14.57;3.42;;;3.50;99.90;;;;;;5053984;28;20048;-74
2024/01/12 10:05:31;;;;;;;17.70;4.00;;;3.40;99.90;;;;;;5056594;28;20457;-77
2024/01/12 10:07:57;;;;;;;15.38;3.33;;;3.50;99.90;;;;;;5054879;28;20036;-72
2024/01/12 10:10:23;;;;;;;11.20;3.22;;;3.60;99.90;;;;;;5061236;28;20047;-73
2024/01/12 10:12:49;;;;;;;22.13;3.70;;;3.50;99.90;;;;;;5056905;28;20052;-72
2024/01/12 10:15:15;;;;;;;11.82;2.90;;;3.50;99.90;;;;;;5045347;28;20048;-72
2024/01/12 10:17:41;;;;;;;14.65;3.80;;;3.50;99.90;;;;;;5068932;28;20043;-72
2024/01/12 10:20:07;;;;;;;17.10;2.95;;;3.60;99.90;;;;;;5059737;28;20064;-72
2024/01/12 10:22:33;;;;;;;18.38;3.40;;;3.50;99.90;;;;;;5066724;28;20049;-77
2024/01/12 10:25:03;;;;;;;11.90;3.10;;;3.50;99.90;;;;;;5072222;28;20543;-72
2024/01/12 10:27:30;;;;;;;13.70;3.67;;;3.60;99.90;;;;;;5072529;28;20318;-73
2024/01/12 10:29:59;;;;;;;19.80;3.78;;;3.60;99.90;;;;;;5067171;28;20056;-71
2024/01/12 10:32:25;;;;;;;14.05;3.55;;;3.60;99.90;;;;;;5058128;28;20068;-77
2024/01/12 10:34:52;;;;;;;20.35;3.45;;;3.70;99.90;;;;;;5064476;28;20071;-73
2024/01/12 10:37:19;;;;;;;19.60;3.67;;;3.70;99.90;;;;;;5052402;28;20041;-73
2024/01/12 10:39:47;;;;;;;20.40;4.38;;;3.70;99.90;;;;;;5055978;28;20048;-73
2024/01/12 10:42:13;;;;;;;20.23;3.88;;;3.80;99.90;;;;;;5061681;28;20036;-72
2024/01/12 10:44:40;;;;;;;21.70;3.97;;;3.80;99.90;;;;;;5064769;28;20355;-74
2024/01/12 10:47:12;;;;;;;19.35;3.85;;;3.80;99.90;;;;;;5052406;28;20049;-72
2024/01/12 10:49:47;;;;;;;20.90;3.75;;;3.90;99.90;;;;;;5089386;28;20032;-79
2024/01/12 10:52:25;;;;;;;;;;;3.90;99.90;;;;;;5064229;28;20125;-72
2024/01/12 10:55:04;;;;;;;16.33;2.70;;;3.90;99.90;;;;;;5059080;28;19916;-73
2024/01/12 10:57:32;;;;;;;18.33;3.42;;;3.90;99.90;;;;;;5062946;28;20342;-73
2024/01/12 10:59:59;;;;;;;17.00;4.30;;;3.80;99.90;;;;;;5073806;28;20032;-72
2024/01/12 11:02:26;;;;;;;19.55;4.22;;;3.90;99.90;;;;;;5070693;28;20047;-73
2024/01/12 11:04:53;;;;;;;15.95;3.72;;;3.90;99.90;;;;;;5065679;28;20041;-74
2024/01/12 11:07:20;;;;;;;21.98;3.90;;;3.90;99.90;;;;;;5081291;28;20041;-74
2024/01/12 11:09:45;;;;;;;16.75;3.20;;;3.90;99.90;;;;;;5071655;28;20197;-73
2024/01/12 11:12:20;;;;;;;13.45;3.67;;;3.90;99.90;;;;;;5065782;28;20487;-74
2024/01/12 11:14:46;;;;;;;21.15;4.07;;;4.00;99.90;;;;;;5063952;28;20101;-73
2024/01/12 11:17:12;;;;;;;21.83;3.35;;;4.00;99.90;;;;;;5084632;28;20127;-73
2024/01/12 11:19:38;;;;;;;12.50;3.10;;;4.10;99.90;;;;;;5081955;28;20115;-73
2024/01/12 11:22:10;;;;;;;21.38;3.28;;;4.00;99.90;;;;;;5071477;28;20056;-73
2024/01/12 11:24:39;;;;;;;21.90;4.38;;;4.10;99.90;;;;;;5060766;28;20470;-72
2024/01/12 11:27:06;;;;;;;16.05;2.97;;;4.00;99.90;;;;;;5072042;28;20098;-73
2024/01/12 11:29:35;;;;;;;17.45;3.58;;;4.10;99.90;;;;;;5054628;28;20072;-73
2024/01/12 11:32:03;;;;;;;10.65;2.60;;;4.10;99.90;;;;;;5066966;28;20386;-74
2024/01/12 11:34:36;;;;;;;21.13;3.90;;;4.10;99.90;;;;;;5060209;28;20525;-74
2024/01/12 11:37:02;;;;;;;16.15;2.88;;;4.20;99.90;;;;;;5088287;28;20099;-74
2024/01/12 11:39:37;;;;;;;20.75;3.50;;;4.20;99.90;;;;;;5051127;28;20048;-74
2024/01/12 11:42:05;;;;;;;18.10;3.45;;;4.20;99.90;;;;;;5058177;28;20548;-74
2024/01/12 11:44:35;;;;;;;18.70;3.45;;;4.20;99.90;;;;;;5057331;28;20081;-72
2024/01/12 11:47:04;;;;;;;12.93;3.13;;;4.20;99.90;;;;;;5057978;28;20113;-73
2024/01/12 11:49:30;;;;;;;17.63;3.67;;;4.30;99.90;;;;;;5063090;28;20154;-73
2024/01/12 11:52:04;;;;;;;21.48;4.50;;;4.30;99.90;;;;;;5062319;28;20572;-73
2024/01/12 11:54:30;;;;;;;20.17;3.90;;;4.40;99.90;;;;;;5069516;28;20394;-73
2024/01/12 11:56:56;;;;;;;20.65;3.78;;;4.50;99.90;;;;;;5067553;28;20048;-74
2024/01/12 11:59:22;;;;;;;21.65;4.03;;;4.50;99.90;;;;;;5064532;28;20067;-73
2024/01/12 12:01:47;;;;;;;14.23;3.40;;;4.50;99.90;;;;;;5057522;28;20076;-72
2024/01/12 12:04:17;;;;;;;23.35;4.10;;;4.50;99.90;;;;;;5061540;28;20393;-72
2024/01/12 12:06:46;;;;;;;18.20;3.05;;;4.50;99.90;;;;;;5095934;28;20078;-74
2024/01/12 12:09:12;;;;;;;25.27;3.97;;;4.50;99.90;;;;;;5059733;28;20052;-74
2024/01/12 12:11:38;;;;;;;22.90;3.70;;;4.50;99.90;;;;;;5071478;28;20351;-73
2024/01/12 12:14:03;;;;;;;25.25;3.50;;;4.50;99.90;;;;;;5071366;28;20062;-73
2024/01/12 12:16:29;;;;;;;20.52;4.22;;;4.50;99.90;;;;;;5069504;28;20142;-73
2024/01/12 12:18:55;;;;;;;15.77;4.68;;;4.50;99.90;;;;;;5069354;28;20091;-74
2024/01/12 12:21:21;;;;;;;20.00;4.10;;;4.60;99.90;;;;;;5070768;28;20635;-73
2024/01/12 12:23:48;;;;;;;19.92;4.45;;;4.60;99.90;;;;;;5053109;28;20378;-73
2024/01/12 12:26:13;;;;;;;17.73;4.43;;;4.60;99.90;;;;;;5069464;28;20194;-73
2024/01/12 12:28:39;;;;;;;23.92;5.57;;;4.60;99.90;;;;;;5064114;28;20423;-73
2024/01/12 12:31:10;;;;;;;20.67;5.13;;;4.60;99.90;;;;;;5068674;28;20085;-73
2024/01/12 12:33:36;;;;;;;23.45;6.35;;;4.60;99.90;;;;;;5071641;28;20389;-73
2024/01/12 12:36:09;;;;;;;21.63;4.00;;;4.70;99.90;;;;;;5064544;28;20040;-73
2024/01/12 12:38:39;;;;;;;22.88;4.32;;;4.70;99.90;;;;;;5064895;28;20473;-73
2024/01/12 12:41:09;;;;;;;20.35;3.88;;;4.70;99.90;;;;;;5067895;28;20033;-73
2024/01/12 12:43:35;;;;;;;22.80;5.22;;;4.70;99.90;;;;;;5060992;28;20089;-74